createdAt,value
2022-08-08T00:00:55.311Z,21.10
2022-08-08T00:03:42.303Z,20.90
2022-08-08T00:07:47.823Z,21.00
2022-08-08T00:12:09.933Z,20.90
2022-08-08T00:16:14.778Z,20.80
2022-08-08T00:20:40.103Z,20.50
2022-08-08T00:24:45.036Z,20.70
2022-08-08T00:28:49.665Z,20.70
2022-08-08T00:33:09.781Z,20.70
2022-08-08T00:37:47.484Z,20.80
2022-08-08T00:42:08.905Z,20.60
2022-08-08T00:46:17.031Z,20.50
2022-08-08T00:50:48.326Z,20.40
2022-08-08T00:54:59.392Z,20.40
2022-08-08T00:59:44.032Z,20.50
2022-08-08T01:03:58.096Z,20.40
2022-08-08T01:08:05.691Z,20.30
2022-08-08T01:12:29.443Z,20.30
2022-08-08T01:16:47.528Z,20.20
2022-08-08T01:21:09.526Z,20.00
2022-08-08T01:25:46.493Z,20.10
2022-08-08T01:29:59.369Z,20.10
2022-08-08T01:34:39.622Z,20.10
2022-08-08T01:39:18.456Z,20.10
2022-08-08T01:43:23.367Z,20.00
2022-08-08T01:48:23.709Z,19.90
2022-08-08T01:54:04.387Z,19.80
2022-08-08T01:56:46.704Z,19.80
2022-08-08T02:00:57.340Z,19.50
2022-08-08T02:05:03.975Z,19.50
2022-08-08T02:09:18.049Z,19.50
2022-08-08T02:13:52.772Z,19.50
2022-08-08T02:17:42.387Z,19.50
2022-08-08T02:22:07.049Z,19.20
2022-08-08T02:26:16.715Z,19.30
2022-08-08T02:30:49.690Z,19.10
2022-08-08T02:35:10.837Z,19.20
2022-08-08T02:39:42.808Z,19.10
2022-08-08T02:44:37.592Z,19.10
2022-08-08T02:48:25.768Z,18.90
2022-08-08T02:52:41.673Z,18.90
2022-08-08T02:56:58.934Z,18.80
2022-08-08T03:01:28.163Z,18.80
2022-08-08T03:05:46.575Z,18.70
2022-08-08T03:10:17.629Z,18.50
2022-08-08T03:15:55.990Z,18.60
2022-08-08T03:18:36.539Z,18.70
2022-08-08T03:22:43.396Z,18.60
2022-08-08T03:26:51.498Z,18.60
2022-08-08T03:31:07.815Z,18.50
2022-08-08T03:34:56.562Z,18.50
2022-08-08T03:39:15.080Z,18.40
2022-08-08T03:43:18.112Z,18.40
2022-08-08T03:47:14.002Z,18.30
2022-08-08T03:51:08.471Z,18.50
2022-08-08T03:55:54.808Z,18.50
2022-08-08T03:59:22.705Z,18.50
2022-08-08T04:03:18.488Z,18.50
2022-08-08T04:07:22.611Z,18.60
2022-08-08T04:11:25.499Z,18.40
2022-08-08T04:15:38.227Z,18.20
2022-08-08T04:19:30.276Z,18.30
2022-08-08T04:24:05.733Z,18.40
2022-08-08T04:28:02.479Z,18.30
2022-08-08T04:31:59.144Z,18.10
2022-08-08T04:35:46.930Z,18.00
2022-08-08T04:40:05.664Z,18.00
2022-08-08T04:43:54.248Z,18.00
2022-08-08T04:47:53.716Z,18.00
2022-08-08T04:51:57.564Z,18.30
2022-08-08T04:55:58.501Z,18.90
2022-08-08T05:00:02.278Z,19.20
2022-08-08T05:04:10.501Z,19.20
2022-08-08T05:08:06.941Z,19.40
2022-08-08T05:12:10.475Z,19.80
2022-08-08T05:16:52.052Z,19.90
2022-08-08T05:20:16.725Z,20.10
2022-08-08T05:24:17.855Z,20.00
2022-08-08T05:28:48.071Z,19.70
2022-08-08T05:32:27.609Z,19.80
2022-08-08T05:36:30.727Z,20.00
2022-08-08T05:40:34.446Z,20.10
2022-08-08T05:44:39.600Z,20.00
2022-08-08T05:48:43.336Z,20.00
2022-08-08T05:52:47.474Z,20.20
2022-08-08T05:56:52.317Z,20.20
2022-08-08T06:00:57.102Z,20.40
2022-08-08T06:05:06.758Z,20.40
2022-08-08T06:09:57.963Z,20.40
2022-08-08T06:13:12.279Z,20.30
2022-08-08T06:17:19.404Z,20.70
2022-08-08T06:21:28.449Z,20.90
2022-08-08T06:26:36.233Z,20.90
2022-08-08T06:29:59.264Z,21.20
2022-08-08T06:34:25.460Z,21.50
2022-08-08T06:37:55.967Z,21.70
2022-08-08T06:42:02.489Z,21.40
2022-08-08T06:46:08.996Z,21.30
2022-08-08T06:50:09.998Z,21.50
2022-08-08T06:54:13.626Z,21.80
2022-08-08T06:58:15.279Z,21.80
2022-08-08T07:02:29.386Z,21.70
2022-08-08T07:06:31.192Z,21.70
2022-08-08T07:10:39.598Z,22.10
2022-08-08T07:14:51.637Z,22.20
2022-08-08T07:19:00.329Z,22.30
2022-08-08T07:23:23.630Z,22.50
2022-08-08T07:27:35.054Z,22.80
2022-08-08T07:31:29.718Z,23.00
2022-08-08T07:35:35.763Z,23.10
2022-08-08T07:39:56.292Z,23.30
2022-08-08T07:43:43.262Z,23.40
2022-08-08T07:47:49.172Z,23.60
2022-08-08T07:51:53.618Z,23.70
2022-08-08T07:55:56.072Z,23.80
2022-08-08T08:00:15.821Z,24.00
2022-08-08T08:04:14.493Z,24.10
2022-08-08T08:08:27.092Z,24.40
2022-08-08T08:12:35.085Z,24.50
2022-08-08T08:16:41.008Z,24.80
2022-08-08T08:20:42.912Z,25.10
2022-08-08T08:24:46.715Z,25.30
2022-08-08T08:28:48.364Z,25.50
2022-08-08T08:32:51.844Z,26.00
2022-08-08T08:36:54.870Z,26.40
2022-08-08T08:40:56.597Z,26.70
2022-08-08T08:44:59.731Z,27.30
2022-08-08T08:49:01.345Z,27.60
2022-08-08T08:53:26.834Z,27.80
2022-08-08T08:57:15.895Z,28.10
2022-08-08T09:01:16.402Z,28.70
2022-08-08T09:05:48.844Z,29.10
2022-08-08T09:09:39.453Z,29.10
2022-08-08T09:13:29.739Z,29.20
2022-08-08T09:17:41.511Z,29.70
2022-08-08T09:22:00.532Z,29.80
2022-08-08T09:26:03.049Z,29.80
2022-08-08T09:30:07.985Z,30.30
2022-08-08T09:34:31.513Z,30.10
2022-08-08T09:38:33.016Z,30.20
2022-08-08T09:42:44.105Z,30.80
2022-08-08T09:46:45.173Z,31.30
2022-08-08T09:50:50.293Z,31.90
2022-08-08T09:54:51.116Z,31.80
2022-08-08T09:58:58.741Z,31.90
2022-08-08T10:03:03.555Z,31.60
2022-08-08T10:07:07.575Z,31.80
2022-08-08T10:12:22.317Z,32.00
2022-08-08T10:15:17.518Z,32.30
2022-08-08T10:19:15.164Z,32.10
2022-08-08T10:23:41.818Z,31.80
2022-08-08T10:27:29.090Z,31.50
2022-08-08T10:31:53.065Z,32.00
2022-08-08T10:36:09.339Z,32.40
2022-08-08T10:40:17.024Z,32.20
2022-08-08T10:44:20.033Z,32.50
2022-08-08T10:48:25.358Z,32.60
2022-08-08T10:52:31.983Z,33.10
2022-08-08T10:56:35.468Z,32.60
2022-08-08T11:00:53.136Z,33.20
2022-08-08T11:04:53.148Z,33.10
2022-08-08T11:08:53.718Z,33.10
2022-08-08T11:13:27.793Z,33.30
2022-08-08T11:17:02.631Z,32.90
2022-08-08T11:21:10.075Z,32.90
2022-08-08T11:25:14.419Z,32.80
2022-08-08T11:29:16.640Z,32.80
2022-08-08T11:33:19.193Z,32.70
2022-08-08T11:38:37.030Z,33.20
2022-08-08T11:41:32.245Z,33.10
2022-08-08T11:45:36.727Z,32.80
2022-08-08T11:49:34.375Z,32.90
2022-08-08T11:53:50.618Z,32.60
2022-08-08T11:57:40.123Z,32.70
2022-08-08T12:01:41.425Z,32.60
2022-08-08T12:05:42.688Z,32.90
2022-08-08T12:09:59.577Z,33.00
2022-08-08T12:14:04.127Z,33.10
2022-08-08T12:17:51.860Z,33.00
2022-08-08T12:21:59.334Z,32.90
2022-08-08T12:26:17.230Z,33.20
2022-08-08T12:30:18.378Z,33.60
2022-08-08T12:34:19.314Z,34.10
2022-08-08T12:38:20.682Z,33.70
2022-08-08T12:42:33.028Z,33.00
2022-08-08T12:46:28.834Z,33.10
2022-08-08T12:50:42.474Z,32.60
2022-08-08T12:54:47.464Z,32.70
2022-08-08T12:58:54.347Z,32.70
2022-08-08T13:03:00.796Z,33.50
2022-08-08T13:07:04.457Z,33.50
2022-08-08T13:11:19.219Z,33.20
2022-08-08T13:15:21.725Z,33.30
2022-08-08T13:19:24.379Z,33.40
2022-08-08T13:23:30.778Z,33.50
2022-08-08T13:27:35.407Z,33.40
2022-08-08T13:31:33.979Z,33.30
2022-08-08T13:35:41.052Z,33.50
2022-08-08T13:39:41.314Z,33.60
2022-08-08T13:43:46.562Z,33.90
2022-08-08T13:48:02.113Z,34.20
2022-08-08T13:52:05.769Z,34.10
2022-08-08T13:56:11.359Z,33.90
2022-08-08T14:00:18.326Z,33.30
2022-08-08T14:04:21.827Z,33.00
2022-08-08T14:08:29.885Z,33.00
2022-08-08T14:12:30.883Z,33.10
2022-08-08T14:16:33.635Z,33.00
2022-08-08T14:20:57.612Z,33.10
2022-08-08T14:24:52.232Z,33.10
2022-08-08T14:29:01.524Z,32.70
2022-08-08T14:33:12.873Z,32.60
2022-08-08T14:37:08.769Z,32.80
2022-08-08T14:41:18.591Z,32.80
2022-08-08T14:45:26.809Z,32.40
2022-08-08T14:49:51.617Z,32.60
2022-08-08T14:53:55.090Z,32.90
2022-08-08T14:58:06.057Z,32.90
2022-08-08T15:01:56.401Z,32.50
2022-08-08T15:05:59.166Z,32.40
2022-08-08T15:10:02.900Z,32.30
2022-08-08T15:14:09.897Z,32.00
2022-08-08T15:18:12.668Z,32.10
2022-08-08T15:22:23.339Z,32.00
2022-08-08T15:26:19.771Z,32.40
2022-08-08T15:30:23.144Z,32.50
2022-08-08T15:34:30.087Z,32.20
2022-08-08T15:38:28.884Z,32.00
2022-08-08T15:42:36.763Z,32.40
2022-08-08T15:46:45.152Z,32.00
2022-08-08T15:51:06.523Z,32.10
2022-08-08T15:55:09.971Z,32.10
2022-08-08T15:59:15.236Z,31.90
2022-08-08T16:03:20.864Z,31.90
2022-08-08T16:07:25.519Z,31.60
2022-08-08T16:13:09.906Z,31.50
2022-08-08T16:15:57.697Z,31.60
2022-08-08T16:19:59.880Z,31.40
2022-08-08T16:23:49.621Z,31.40
2022-08-08T16:27:58.404Z,31.70
2022-08-08T16:31:59.555Z,31.60
2022-08-08T16:36:03.365Z,31.20
2022-08-08T16:40:20.217Z,31.30
2022-08-08T16:44:27.767Z,31.40
2022-08-08T16:48:36.934Z,31.10
2022-08-08T16:55:05.577Z,31.10
2022-08-08T16:57:01.692Z,31.00
2022-08-08T17:00:51.687Z,31.00
2022-08-08T17:04:55.712Z,30.70
2022-08-08T17:09:00.693Z,30.60
2022-08-08T17:13:07.981Z,30.60
2022-08-08T17:17:41.944Z,30.70
2022-08-08T17:21:18.351Z,30.50
2022-08-08T17:25:47.757Z,30.80
2022-08-08T17:29:43.897Z,30.60
2022-08-08T17:34:53.341Z,30.70
2022-08-08T17:37:55.105Z,30.50
2022-08-08T17:42:02.498Z,30.20
2022-08-08T17:46:04.982Z,30.00
2022-08-08T17:50:11.919Z,29.80
2022-08-08T17:54:26.040Z,29.80
2022-08-08T17:58:31.177Z,29.90
2022-08-08T18:02:37.940Z,29.70
2022-08-08T18:06:43.175Z,29.50
2022-08-08T18:10:54.114Z,29.40
2022-08-08T18:14:53.068Z,29.20
2022-08-08T18:19:00.308Z,29.00
2022-08-08T18:23:06.635Z,29.10
2022-08-08T18:27:17.235Z,29.00
2022-08-08T18:31:18.874Z,28.90
2022-08-08T18:35:34.211Z,28.60
2022-08-08T18:39:36.416Z,28.50
2022-08-08T18:43:43.387Z,28.40
2022-08-08T18:47:47.017Z,28.30
2022-08-08T18:51:54.535Z,28.20
2022-08-08T18:55:53.913Z,27.90
2022-08-08T18:59:59.266Z,27.70
2022-08-08T19:04:10.891Z,27.60
2022-08-08T19:08:24.708Z,27.40
2022-08-08T19:12:26.305Z,27.30
2022-08-08T19:16:28.411Z,27.20
2022-08-08T19:20:32.131Z,27.10
2022-08-08T19:24:42.461Z,26.90
2022-08-08T19:28:36.569Z,26.90
2022-08-08T19:32:37.906Z,26.80
2022-08-08T19:36:39.127Z,26.70
2022-08-08T19:40:42.505Z,26.70
2022-08-08T19:44:46.234Z,26.50
2022-08-08T19:48:48.230Z,26.60
2022-08-08T19:52:59.391Z,26.50
2022-08-08T19:56:52.983Z,26.50
2022-08-08T20:00:54.190Z,26.50
2022-08-08T20:04:55.310Z,26.50
2022-08-08T20:08:57.855Z,26.60
2022-08-08T20:14:12.019Z,26.40
2022-08-08T20:17:03.730Z,26.20
2022-08-08T20:21:05.815Z,26.10
2022-08-08T20:25:08.270Z,26.10
2022-08-08T20:29:11.642Z,26.10
2022-08-08T20:37:15.319Z,25.90
2022-08-08T20:41:19.153Z,26.00
2022-08-08T20:45:55.057Z,26.00
2022-08-08T20:49:24.487Z,25.90
2022-08-08T20:54:00.514Z,25.80
2022-08-08T20:57:31.007Z,25.80
2022-08-08T21:01:44.150Z,25.70
2022-08-08T21:05:58.483Z,25.40
2022-08-08T21:10:01.405Z,25.40
2022-08-08T21:13:43.226Z,25.40
2022-08-08T21:17:45.178Z,25.30
2022-08-08T21:21:55.479Z,25.20
2022-08-08T21:25:56.886Z,25.20
2022-08-08T21:30:04.492Z,25.20
2022-08-08T21:34:02.127Z,25.10
2022-08-08T21:38:05.637Z,25.00
2022-08-08T21:42:09.064Z,25.00
2022-08-08T21:48:08.147Z,25.00
2022-08-08T21:50:15.339Z,24.80
2022-08-08T21:54:54.172Z,24.70
2022-08-08T21:58:24.834Z,24.40
2022-08-08T22:02:25.956Z,24.20
2022-08-08T22:06:29.460Z,24.00
2022-08-08T22:10:33.593Z,24.00
2022-08-08T22:14:36.681Z,23.90
2022-08-08T22:18:38.211Z,23.70
2022-08-08T22:22:41.084Z,23.70
2022-08-08T22:27:02.474Z,23.80
2022-08-08T22:30:51.027Z,24.00
2022-08-08T22:34:51.576Z,23.90
2022-08-08T22:38:53.173Z,23.80
2022-08-08T22:42:54.714Z,23.70
2022-08-08T22:46:57.237Z,23.60
2022-08-08T22:50:59.549Z,23.60
2022-08-08T22:55:05.594Z,23.60
2022-08-08T22:59:07.305Z,23.60
2022-08-08T23:03:10.489Z,23.50
2022-08-08T23:11:14.369Z,23.50
2022-08-08T23:16:38.460Z,23.60
2022-08-08T23:19:20.714Z,23.40
2022-08-08T23:23:22.909Z,23.30
2022-08-08T23:27:37.714Z,23.10
2022-08-08T23:31:27.335Z,23.00
2022-08-08T23:35:34.411Z,22.90
2022-08-08T23:39:42.250Z,22.90
2022-08-08T23:43:45.605Z,22.70
2022-08-08T23:49:01.625Z,22.80
2022-08-08T23:52:05.037Z,22.80
2022-08-08T23:55:49.443Z,22.70
